Time;durP1;ratioP1;P1;durP2;ratioP2;P2;SDS_P1;SDS_P2;PMS_P1;PMS_P2;Temp;Humidity;BMP_temperature;BMP_pressure;BME280_temperature;BME280_humidity;BME280_pressure;Samples;Min_cycle;Max_cycle;Signal;HPM_P1;HPM_P2
2021/06/27 00:01:05;;;;;;;13.70;11.90;;;17.90;99.90;;;;;;6274696;28;20772;-75
2021/06/27 00:04:10;;;;;;;15.80;11.77;;;17.90;99.90;;;;;;6274366;28;20045;-75
2021/06/27 00:07:12;;;;;;;14.93;12.52;;;17.90;99.90;;;;;;6274255;28;20052;-76
2021/06/27 00:10:22;;;;;;;14.80;12.38;;;17.80;99.90;;;;;;6274225;28;20051;-76
2021/06/27 00:13:24;;;;;;;15.07;12.32;;;17.80;99.90;;;;;;6274433;28;20583;-75
2021/06/27 00:16:29;;;;;;;15.10;13.38;;;17.80;99.90;;;;;;6273939;28;20517;-76
2021/06/27 00:19:31;;;;;;;14.95;13.45;;;17.80;99.90;;;;;;6273705;28;20040;-75
2021/06/27 00:22:33;;;;;;;14.05;12.60;;;17.80;99.90;;;;;;6273817;28;20561;-75
2021/06/27 00:25:36;;;;;;;15.82;13.73;;;17.90;99.90;;;;;;6274193;28;20073;-75
2021/06/27 00:28:38;;;;;;;13.25;11.80;;;17.90;99.90;;;;;;6273250;28;20127;-76
2021/06/27 00:31:41;;;;;;;14.38;12.50;;;17.90;99.90;;;;;;6273878;28;20041;-75
2021/06/27 00:34:43;;;;;;;15.75;14.02;;;17.90;99.90;;;;;;6273643;28;20072;-75
2021/06/27 00:37:47;;;;;;;13.02;11.73;;;17.90;99.90;;;;;;6273941;28;20114;-75
2021/06/27 00:40:49;;;;;;;13.93;11.82;;;17.80;99.90;;;;;;6273435;28;20392;-76
2021/06/27 00:43:51;;;;;;;17.25;13.65;;;17.80;99.90;;;;;;6273382;28;20076;-75
2021/06/27 00:46:55;;;;;;;14.10;11.63;;;17.70;99.90;;;;;;6273528;28;20499;-76
2021/06/27 00:49:57;;;;;;;14.25;12.80;;;17.70;99.90;;;;;;6272840;28;20045;-76
2021/06/27 00:52:59;;;;;;;14.98;11.77;;;17.70;99.90;;;;;;6247663;28;20426;-75
2021/06/27 00:56:01;;;;;;;15.25;12.45;;;17.70;99.90;;;;;;6252731;28;20123;-75
2021/06/27 00:59:03;;;;;;;14.80;12.55;;;17.70;99.90;;;;;;6247645;28;20132;-76
2021/06/27 01:02:06;;;;;;;13.93;12.25;;;17.60;99.90;;;;;;6247889;28;20154;-76
2021/06/27 01:05:12;;;;;;;17.70;14.68;;;17.70;99.90;;;;;;6248830;28;20108;-75
2021/06/27 01:08:14;;;;;;;13.55;12.13;;;17.60;99.90;;;;;;6248171;28;20046;-75
2021/06/27 01:11:16;;;;;;;17.77;11.82;;;17.60;99.90;;;;;;6248012;28;20057;-75
2021/06/27 01:14:18;;;;;;;15.02;11.65;;;17.60;99.90;;;;;;6248181;28;20037;-76
2021/06/27 01:17:21;;;;;;;17.08;13.23;;;17.70;99.90;;;;;;6248089;28;20195;-75
2021/06/27 01:20:25;;;;;;;14.73;13.23;;;17.60;99.90;;;;;;6247518;28;20507;-76
2021/06/27 01:23:28;;;;;;;14.15;11.55;;;17.60;99.90;;;;;;6247790;28;20068;-76
2021/06/27 01:26:30;;;;;;;13.07;11.75;;;17.50;99.90;;;;;;6247972;28;20172;-76
2021/06/27 01:29:32;;;;;;;20.92;13.30;;;17.50;99.90;;;;;;6247492;28;20183;-75
2021/06/27 01:32:33;;;;;;;13.52;12.10;;;17.40;99.90;;;;;;6247255;28;20162;-75
2021/06/27 01:35:37;;;;;;;17.05;13.55;;;17.40;99.90;;;;;;6247663;28;20096;-75
2021/06/27 01:38:40;;;;;;;17.80;13.93;;;17.30;99.90;;;;;;6247126;28;20111;-75
2021/06/27 01:41:49;;;;;;;17.48;14.88;;;17.20;99.90;;;;;;6247684;28;20160;-75
2021/06/27 01:44:50;;;;;;;16.20;13.18;;;17.20;99.90;;;;;;6247611;28;20057;-76
2021/06/27 01:47:56;;;;;;;14.43;11.38;;;17.20;99.90;;;;;;6247075;28;20132;-75
2021/06/27 01:50:59;;;;;;;13.82;12.48;;;17.10;99.90;;;;;;6246810;28;20045;-75
2021/06/27 01:54:02;;;;;;;14.35;12.80;;;17.10;99.90;;;;;;6250853;28;20115;-75
2021/06/27 01:57:04;;;;;;;17.00;15.30;;;17.10;99.90;;;;;;6249927;28;20060;-75
2021/06/27 02:00:08;;;;;;;15.93;14.27;;;17.10;99.90;;;;;;6261517;22;20041;-76
2021/06/27 02:03:17;;;;;;;16.05;13.82;;;17.10;99.90;;;;;;6234990;28;20137;-77
2021/06/27 02:06:19;;;;;;;16.85;14.70;;;17.10;99.90;;;;;;6226399;28;20045;-76
2021/06/27 02:09:23;;;;;;;18.38;13.57;;;17.20;99.90;;;;;;6246706;28;20129;-76
2021/06/27 02:12:25;;;;;;;14.98;13.43;;;17.20;99.90;;;;;;6246064;28;20068;-76
2021/06/27 02:15:27;;;;;;;16.88;14.57;;;17.20;99.90;;;;;;6246248;28;20515;-76
2021/06/27 02:18:32;;;;;;;15.40;13.63;;;17.20;99.90;;;;;;6245954;28;20123;-76
2021/06/27 02:21:36;;;;;;;16.13;14.48;;;17.20;99.90;;;;;;6246362;28;20057;-76
2021/06/27 02:24:39;;;;;;;18.20;15.45;;;17.10;99.90;;;;;;6245947;28;20536;-76
2021/06/27 02:27:41;;;;;;;18.08;12.95;;;17.10;99.90;;;;;;6246115;28;20108;-76
2021/06/27 02:30:43;;;;;;;16.02;13.07;;;17.00;99.90;;;;;;6245609;28;20085;-76
2021/06/27 02:33:46;;;;;;;18.80;14.80;;;17.00;99.90;;;;;;6246085;28;20490;-77
2021/06/27 02:36:48;;;;;;;14.63;13.15;;;16.90;99.90;;;;;;6246300;28;20055;-76
2021/06/27 02:39:51;;;;;;;16.80;12.63;;;16.90;99.90;;;;;;6245434;28;20190;-77
2021/06/27 02:42:53;;;;;;;15.20;12.15;;;16.80;99.90;;;;;;6245931;28;20077;-77
2021/06/27 02:45:55;;;;;;;15.98;13.43;;;16.70;99.90;;;;;;6245463;28;20144;-76
2021/06/27 02:48:57;;;;;;;15.75;13.02;;;16.70;99.90;;;;;;6246043;28;20049;-77
2021/06/27 02:51:59;;;;;;;15.00;13.05;;;16.70;99.90;;;;;;6245601;28;20738;-76
2021/06/27 02:55:03;;;;;;;14.18;12.68;;;16.70;99.90;;;;;;6244818;28;20115;-76
2021/06/27 02:58:05;;;;;;;16.33;13.88;;;16.70;99.90;;;;;;6245088;28;20055;-77
2021/06/27 03:01:08;;;;;;;17.80;14.23;;;16.80;99.90;;;;;;6245502;28;20180;-76
2021/06/27 03:04:10;;;;;;;16.33;13.98;;;16.80;99.90;;;;;;6245645;28;20133;-77
2021/06/27 03:07:12;;;;;;;16.08;13.68;;;16.80;99.90;;;;;;6245542;28;20172;-77
2021/06/27 03:10:17;;;;;;;15.75;12.52;;;16.70;99.90;;;;;;6245634;28;20091;-77
2021/06/27 03:13:18;;;;;;;14.77;13.05;;;16.80;99.90;;;;;;6245890;28;20195;-77
2021/06/27 03:16:20;;;;;;;14.32;12.75;;;16.80;99.90;;;;;;6245483;28;20391;-77
2021/06/27 03:19:22;;;;;;;14.25;12.75;;;16.80;99.90;;;;;;6249352;28;20503;-77
2021/06/27 03:22:24;;;;;;;14.98;13.50;;;16.80;99.90;;;;;;6250212;28;20558;-77
2021/06/27 03:25:28;;;;;;;14.43;12.55;;;16.70;99.90;;;;;;6250739;28;20058;-77
2021/06/27 03:28:33;;;;;;;15.55;13.80;;;16.70;99.90;;;;;;6249997;28;20045;-77
2021/06/27 03:31:35;;;;;;;14.70;12.82;;;16.70;99.90;;;;;;6250049;28;20045;-76
2021/06/27 03:34:36;;;;;;;15.65;14.07;;;16.70;99.90;;;;;;6249894;28;20124;-75
2021/06/27 03:37:40;;;;;;;19.02;12.57;;;16.70;99.90;;;;;;6250646;28;20045;-75
2021/06/27 03:40:44;;;;;;;13.48;12.00;;;16.70;99.90;;;;;;6249405;28;20503;-75
2021/06/27 03:43:46;;;;;;;13.80;12.32;;;16.80;99.90;;;;;;6249927;28;20049;-75
2021/06/27 03:46:47;;;;;;;12.52;11.23;;;16.80;99.90;;;;;;6249455;28;20045;-75
2021/06/27 03:49:49;;;;;;;14.02;12.23;;;16.80;99.90;;;;;;6249399;28;20049;-75
2021/06/27 03:52:51;;;;;;;15.40;11.57;;;16.90;99.90;;;;;;6250334;28;20111;-75
2021/06/27 03:55:58;;;;;;;13.50;12.13;;;16.90;99.90;;;;;;6248852;28;20136;-75
2021/06/27 03:58:59;;;;;;;12.85;11.55;;;16.90;99.90;;;;;;6248204;28;20583;-75
2021/06/27 04:02:01;;;;;;;12.65;11.00;;;17.00;99.90;;;;;;6249695;28;20081;-75
2021/06/27 04:05:04;;;;;;;13.10;11.75;;;17.00;99.90;;;;;;6250011;28;20565;-75
2021/06/27 04:08:06;;;;;;;13.65;12.25;;;17.10;99.90;;;;;;6249212;28;20080;-76
2021/06/27 04:11:09;;;;;;;12.82;11.57;;;17.10;99.90;;;;;;6249041;28;20041;-76
2021/06/27 04:14:11;;;;;;;13.68;12.35;;;17.20;99.90;;;;;;6249013;28;20065;-76
2021/06/27 04:17:17;;;;;;;13.45;12.07;;;17.30;99.90;;;;;;6249603;28;20139;-75
2021/06/27 04:20:19;;;;;;;13.93;11.90;;;17.30;99.90;;;;;;6248677;28;20079;-75
2021/06/27 04:23:21;;;;;;;15.48;11.73;;;17.30;99.90;;;;;;6248964;28;20104;-75
2021/06/27 04:26:24;;;;;;;12.85;11.35;;;17.40;99.90;;;;;;6248917;28;20175;-75
2021/06/27 04:29:26;;;;;;;12.25;11.05;;;17.40;99.90;;;;;;6247639;28;20138;-75
2021/06/27 04:32:28;;;;;;;11.65;10.55;;;17.60;99.90;;;;;;6248708;28;20049;-75
2021/06/27 04:35:32;;;;;;;12.70;10.45;;;17.60;99.90;;;;;;6248739;28;20180;-76
2021/06/27 04:38:34;;;;;;;12.38;10.38;;;17.80;99.90;;;;;;6248422;28;20067;-76
2021/06/27 04:41:37;;;;;;;11.73;10.50;;;17.90;99.90;;;;;;6249129;28;20053;-75
2021/06/27 04:44:39;;;;;;;11.15;9.43;;;18.00;99.90;;;;;;6248143;28;20180;-75
2021/06/27 04:47:41;;;;;;;9.85;8.90;;;18.20;99.90;;;;;;6248579;28;20132;-75
2021/06/27 04:50:46;;;;;;;11.75;9.00;;;18.30;99.90;;;;;;6247893;28;20046;-75
2021/06/27 04:53:48;;;;;;;11.90;10.30;;;18.50;99.90;;;;;;6248089;28;20612;-75
2021/06/27 04:56:51;;;;;;;11.98;10.88;;;18.70;99.90;;;;;;6247698;28;20080;-75
2021/06/27 04:59:53;;;;;;;12.35;9.77;;;18.80;99.90;;;;;;6246557;28;20050;-75
2021/06/27 05:02:55;;;;;;;10.75;9.60;;;18.80;99.90;;;;;;6247846;28;20140;-75
2021/06/27 05:05:56;;;;;;;10.32;9.32;;;18.70;99.90;;;;;;6247805;28;20518;-75
2021/06/27 05:08:58;;;;;;;10.45;9.00;;;18.80;99.90;;;;;;6248178;28;20095;-76
2021/06/27 05:12:01;;;;;;;10.20;9.20;;;19.00;99.90;;;;;;6247511;28;20511;-76
2021/06/27 05:15:04;;;;;;;13.73;8.55;;;19.20;99.90;;;;;;6247902;28;20069;-76
2021/06/27 05:18:06;;;;;;;8.63;7.85;;;19.30;99.90;;;;;;6247686;28;20127;-75
2021/06/27 05:21:08;;;;;;;7.95;7.15;;;19.40;99.90;;;;;;6247802;28;20135;-75
2021/06/27 05:24:10;;;;;;;9.70;8.70;;;19.60;99.90;;;;;;6247271;28;20598;-75
2021/06/27 05:27:13;;;;;;;10.00;8.27;;;19.90;99.90;;;;;;6247568;28;20180;-76
2021/06/27 05:30:16;;;;;;;9.25;8.05;;;20.10;99.90;;;;;;6246864;28;20099;-76
2021/06/27 05:33:18;;;;;;;9.02;8.20;;;20.00;99.90;;;;;;6247481;28;20045;-76
2021/06/27 05:36:20;;;;;;;7.78;7.05;;;20.10;99.90;;;;;;6247368;28;20069;-76
2021/06/27 05:39:23;;;;;;;7.43;6.68;;;20.40;99.90;;;;;;6246587;28;20122;-76
2021/06/27 05:42:26;;;;;;;8.30;7.32;;;20.80;99.90;;;;;;6247129;28;20053;-76
2021/06/27 05:45:28;;;;;;;8.63;7.82;;;21.30;98.20;;;;;;6247189;28;20232;-75
2021/06/27 05:48:30;;;;;;;7.47;6.10;;;21.50;97.00;;;;;;6246887;28;20115;-75
2021/06/27 05:51:32;;;;;;;7.03;6.43;;;21.70;95.50;;;;;;6246514;28;20052;-75
2021/06/27 05:54:34;;;;;;;7.72;5.60;;;21.70;94.80;;;;;;6246791;28;20572;-76
2021/06/27 05:57:37;;;;;;;8.02;6.40;;;21.70;94.00;;;;;;6246662;28;20085;-76
2021/06/27 06:00:39;;;;;;;5.95;5.35;;;21.90;93.60;;;;;;6244654;28;20110;-75
2021/06/27 06:03:41;;;;;;;7.25;6.57;;;22.60;92.10;;;;;;6242199;28;20049;-75
2021/06/27 06:06:43;;;;;;;5.30;4.63;;;23.70;89.40;;;;;;6231724;28;20038;-75
2021/06/27 06:09:44;;;;;;;6.32;5.72;;;24.60;83.90;;;;;;6235170;28;20148;-76
2021/06/27 06:12:48;;;;;;;6.60;5.95;;;25.00;81.50;;;;;;6206272;28;20158;-76
2021/06/27 06:15:49;;;;;;;6.65;5.47;;;25.60;79.40;;;;;;6222025;28;20073;-76
2021/06/27 06:18:51;;;;;;;7.38;5.07;;;26.00;76.10;;;;;;6221366;28;20547;-76
2021/06/27 06:21:53;;;;;;;5.95;5.47;;;26.30;73.40;;;;;;6217127;28;20128;-76
2021/06/27 06:24:55;;;;;;;5.13;4.63;;;26.60;72.10;;;;;;6222222;28;20196;-76
2021/06/27 06:27:59;;;;;;;6.93;5.50;;;26.50;70.70;;;;;;6221138;28;20515;-76
2021/06/27 06:31:01;;;;;;;5.75;5.25;;;25.90;71.90;;;;;;6220775;28;20042;-77
2021/06/27 06:34:03;;;;;;;6.18;5.57;;;25.30;74.70;;;;;;6221405;28;20137;-77
2021/06/27 06:37:06;;;;;;;5.53;5.03;;;24.90;75.10;;;;;;6221755;28;20088;-77
2021/06/27 06:40:09;;;;;;;6.13;5.15;;;24.70;75.20;;;;;;6235916;28;20502;-77
2021/06/27 06:43:12;;;;;;;6.13;5.30;;;24.50;75.70;;;;;;6234306;28;20124;-77
2021/06/27 06:46:14;;;;;;;5.75;5.15;;;24.50;76.00;;;;;;6220994;28;20153;-77
2021/06/27 06:49:16;;;;;;;5.35;4.85;;;24.50;75.80;;;;;;6221232;28;20136;-77
2021/06/27 06:52:18;;;;;;;7.13;5.25;;;24.50;75.30;;;;;;6222417;28;20045;-78
2021/06/27 06:55:21;;;;;;;4.93;4.53;;;24.50;74.50;;;;;;6225939;28;20125;-77
2021/06/27 06:58:28;;;;;;;6.10;4.72;;;24.50;74.60;;;;;;6225499;28;20053;-77
2021/06/27 07:01:31;;;;;;;4.80;4.33;;;24.40;74.20;;;;;;6225556;28;20053;-77
2021/06/27 07:04:33;;;;;;;5.50;4.03;;;24.20;74.80;;;;;;6225470;28;20127;-77
2021/06/27 07:07:35;;;;;;;9.18;4.35;;;24.30;74.50;;;;;;6225472;28;20050;-77
2021/06/27 07:10:37;;;;;;;5.75;4.40;;;24.40;74.20;;;;;;6225145;28;20411;-77
2021/06/27 07:13:40;;;;;;;5.88;5.38;;;24.50;73.70;;;;;;6215415;28;20144;-76
2021/06/27 07:16:42;;;;;;;4.60;4.18;;;24.60;73.40;;;;;;6225212;28;20475;-76
2021/06/27 07:19:44;;;;;;;3.67;3.38;;;24.80;73.60;;;;;;6208885;28;20057;-77
2021/06/27 07:22:46;;;;;;;4.35;3.97;;;24.90;72.20;;;;;;6209205;28;20105;-76
2021/06/27 07:25:48;;;;;;;5.15;4.15;;;24.90;72.50;;;;;;6224975;28;20053;-77
2021/06/27 07:28:51;;;;;;;5.43;4.47;;;24.90;72.60;;;;;;6225112;28;20116;-77
2021/06/27 07:31:53;;;;;;;4.47;4.05;;;25.10;72.20;;;;;;6224970;28;20128;-77
2021/06/27 07:34:55;;;;;;;4.10;3.65;;;25.40;71.60;;;;;;6224743;28;20450;-77
2021/06/27 07:37:57;;;;;;;4.32;3.92;;;25.50;70.80;;;;;;6225056;28;20564;-77
2021/06/27 07:40:59;;;;;;;4.88;4.47;;;25.70;69.50;;;;;;6221722;28;20125;-77
2021/06/27 07:44:02;;;;;;;3.90;3.60;;;25.70;69.10;;;;;;6224623;28;20153;-76
2021/06/27 07:47:04;;;;;;;4.95;3.85;;;25.60;69.10;;;;;;6224585;28;20075;-76
2021/06/27 07:50:07;;;;;;;3.88;3.58;;;25.50;69.80;;;;;;6224144;28;20049;-77
2021/06/27 07:53:09;;;;;;;4.50;4.10;;;25.60;69.40;;;;;;6224819;28;20463;-77
2021/06/27 07:56:11;;;;;;;4.68;3.95;;;25.80;69.60;;;;;;6224520;28;20053;-76
2021/06/27 07:59:15;;;;;;;3.72;3.38;;;26.10;69.30;;;;;;6247094;23;20058;-75
2021/06/27 08:02:16;;;;;;;4.53;4.15;;;26.40;69.10;;;;;;6199302;28;20057;-75
2021/06/27 08:05:19;;;;;;;4.53;3.95;;;26.80;67.60;;;;;;6200930;28;20177;-76
2021/06/27 08:08:20;;;;;;;4.93;3.40;;;27.10;66.70;;;;;;6201156;28;20050;-76
2021/06/27 08:11:22;;;;;;;3.35;3.00;;;27.30;65.20;;;;;;6200269;28;20101;-76
2021/06/27 08:14:25;;;;;;;5.68;3.13;;;27.30;65.50;;;;;;6201169;28;20053;-75
2021/06/27 08:17:27;;;;;;;4.82;4.25;;;27.30;66.10;;;;;;6200762;28;20085;-76
2021/06/27 08:20:30;;;;;;;3.47;3.17;;;27.30;65.10;;;;;;6200051;28;20451;-77
2021/06/27 08:23:31;;;;;;;3.72;2.95;;;27.30;64.90;;;;;;6200369;28;20458;-75
2021/06/27 08:26:33;;;;;;;3.55;3.25;;;27.40;65.20;;;;;;6200737;28;20043;-76
2021/06/27 08:29:37;;;;;;;4.43;3.30;;;27.50;64.70;;;;;;6201423;28;20448;-76
2021/06/27 08:32:43;;;;;;;3.60;3.30;;;27.90;64.00;;;;;;6200591;28;20121;-77
2021/06/27 08:35:44;;;;;;;5.63;4.05;;;28.10;63.10;;;;;;6200968;28;20057;-76
2021/06/27 08:38:46;;;;;;;3.55;3.25;;;28.20;63.30;;;;;;6200422;28;20050;-76
2021/06/27 08:41:48;;;;;;;3.30;3.00;;;28.20;63.10;;;;;;6211740;28;20253;-77
2021/06/27 08:44:52;;;;;;;3.13;2.83;;;28.50;62.70;;;;;;6201101;28;20050;-77
2021/06/27 08:47:55;;;;;;;3.75;2.88;;;28.70;61.20;;;;;;6202569;28;20046;-77
2021/06/27 08:50:57;;;;;;;2.97;2.78;;;28.50;61.10;;;;;;6199725;28;20057;-77
2021/06/27 08:53:59;;;;;;;3.13;2.88;;;28.60;61.50;;;;;;6202312;28;20066;-76
2021/06/27 08:57:01;;;;;;;3.85;3.55;;;28.60;60.00;;;;;;6226317;28;20136;-76
2021/06/27 09:00:06;;;;;;;3.38;3.08;;;28.50;60.00;;;;;;6224567;28;20093;-76
2021/06/27 09:03:10;;;;;;;3.08;2.88;;;28.70;59.50;;;;;;6187613;28;20186;-76
2021/06/27 09:06:12;;;;;;;2.90;2.67;;;28.90;58.10;;;;;;6176715;28;20046;-76
2021/06/27 09:09:18;;;;;;;3.25;2.95;;;29.00;59.00;;;;;;6175171;28;20129;-78
2021/06/27 09:12:20;;;;;;;5.40;3.65;;;29.10;57.80;;;;;;6175678;28;20196;-76
2021/06/27 09:15:42;;;;;;;2.58;2.33;;;29.00;55.70;;;;;;6187946;28;20082;-77
2021/06/27 09:18:44;;;;;;;3.22;3.03;;;28.70;56.20;;;;;;6199615;28;20049;-76
2021/06/27 09:22:12;;;;;;;2.58;2.38;;;28.70;56.50;;;;;;6199478;28;20525;-77
2021/06/27 09:25:23;;;;;;;2.65;2.45;;;28.90;56.80;;;;;;6199461;28;20117;-77
2021/06/27 09:28:24;;;;;;;2.80;2.60;;;29.10;56.80;;;;;;6199867;28;20080;-77
2021/06/27 09:31:39;;;;;;;2.80;2.60;;;29.30;55.60;;;;;;6198430;28;20193;-77
2021/06/27 09:34:43;;;;;;;2.33;2.13;;;29.70;55.10;;;;;;6198875;28;20042;-78
2021/06/27 09:37:45;;;;;;;4.13;2.55;;;29.80;53.30;;;;;;6199123;28;20496;-78
2021/06/27 09:40:48;;;;;;;5.25;2.78;;;29.70;54.00;;;;;;6198473;28;20758;-77
2021/06/27 09:43:55;;;;;;;6.18;2.70;;;30.00;53.40;;;;;;6199214;28;20131;-77
2021/06/27 09:46:59;;;;;;;3.25;2.42;;;30.30;51.60;;;;;;6198910;28;20050;-77
2021/06/27 09:50:01;;;;;;;2.92;2.55;;;30.10;53.80;;;;;;6198268;28;20101;-77
2021/06/27 09:53:02;;;;;;;2.92;2.67;;;29.90;51.20;;;;;;6199035;28;20105;-76
2021/06/27 09:56:06;;;;;;;2.90;2.25;;;29.60;51.80;;;;;;6198501;28;20566;-76
2021/06/27 09:59:10;;;;;;;2.58;2.38;;;29.60;52.50;;;;;;6198017;28;20055;-77
2021/06/27 10:02:13;;;;;;;2.60;2.40;;;29.70;52.30;;;;;;6197199;28;20094;-76
2021/06/27 10:05:24;;;;;;;3.20;2.40;;;29.80;53.00;;;;;;6197947;28;20058;-76
2021/06/27 10:08:29;;;;;;;3.22;2.92;;;29.50;52.20;;;;;;6198102;28;20042;-76
2021/06/27 10:11:30;;;;;;;2.42;2.22;;;29.40;53.10;;;;;;6197911;28;20121;-76
2021/06/27 10:14:34;;;;;;;4.03;3.08;;;29.60;51.60;;;;;;6197973;28;20503;-76
2021/06/27 10:17:37;;;;;;;3.72;2.90;;;30.00;51.60;;;;;;6198922;28;20108;-76
2021/06/27 10:20:39;;;;;;;3.03;2.63;;;30.40;51.00;;;;;;6197516;28;20073;-76
2021/06/27 10:23:41;;;;;;;2.75;2.55;;;30.70;49.20;;;;;;6197965;28;20486;-76
2021/06/27 10:26:45;;;;;;;2.20;2.00;;;30.40;49.70;;;;;;6188157;28;20170;-76
2021/06/27 10:29:49;;;;;;;2.88;2.67;;;30.50;50.30;;;;;;6187408;28;20138;-75
2021/06/27 10:32:53;;;;;;;2.33;2.13;;;30.40;49.50;;;;;;6190272;28;20101;-76
2021/06/27 10:35:55;;;;;;;1.92;1.83;;;30.20;50.30;;;;;;6186197;28;20088;-76
2021/06/27 10:38:58;;;;;;;3.30;2.90;;;30.20;51.00;;;;;;6185118;28;20646;-76
2021/06/27 10:42:02;;;;;;;2.72;2.33;;;30.10;50.90;;;;;;6184206;28;20119;-76
2021/06/27 10:45:04;;;;;;;3.67;2.28;;;30.00;49.40;;;;;;6186396;28;20046;-77
2021/06/27 10:48:38;;;;;;;2.20;2.00;;;30.30;49.90;;;;;;6185425;28;20176;-75
2021/06/27 10:52:00;;;;;;;2.03;1.90;;;30.60;49.00;;;;;;6186043;28;20396;-76
2021/06/27 10:55:21;;;;;;;6.82;3.25;;;30.80;47.50;;;;;;6197531;28;20046;-76
2021/06/27 10:58:36;;;;;;;2.80;2.60;;;31.00;48.00;;;;;;6197134;28;20074;-77
2021/06/27 11:02:12;;;;;;;2.72;2.53;;;31.60;47.60;;;;;;6197273;28;20148;-77
2021/06/27 11:05:47;;;;;;;3.03;2.72;;;31.80;47.50;;;;;;6194201;28;20180;-77
2021/06/27 11:08:55;;;;;;;6.60;3.08;;;31.80;48.70;;;;;;6197377;28;20129;-77
2021/06/27 11:11:58;;;;;;;4.05;2.90;;;31.50;48.30;;;;;;6197081;28;20042;-76
2021/06/27 11:15:13;;;;;;;6.97;3.42;;;31.40;50.10;;;;;;6195674;28;20431;-76
2021/06/27 11:18:29;;;;;;;4.63;3.17;;;31.50;49.50;;;;;;6195948;28;20504;-77
2021/06/27 11:21:38;;;;;;;3.22;2.92;;;31.50;48.60;;;;;;6197590;28;20077;-77
2021/06/27 11:24:40;;;;;;;3.42;3.13;;;31.40;49.90;;;;;;6196975;28;20053;-76
2021/06/27 11:27:44;;;;;;;3.20;2.90;;;31.70;49.60;;;;;;6197444;28;20122;-77
2021/06/27 11:30:47;;;;;;;2.92;2.72;;;31.70;48.90;;;;;;6196479;28;20049;-77
2021/06/27 11:34:27;;;;;;;2.50;2.30;;;31.50;48.60;;;;;;6196998;28;20054;-77
2021/06/27 11:37:47;;;;;;;2.80;2.60;;;31.50;48.60;;;;;;6186053;28;20051;-76
2021/06/27 11:40:51;;;;;;;3.13;2.80;;;31.50;48.60;;;;;;6201183;28;20049;-74
2021/06/27 11:44:00;;;;;;;3.40;2.65;;;31.40;48.60;;;;;;6201320;28;20058;-75
2021/06/27 11:47:21;;;;;;;4.22;3.33;;;31.30;47.40;;;;;;6200937;28;20638;-76
2021/06/27 11:50:26;;;;;;;3.28;2.97;;;31.00;48.70;;;;;;6200660;28;20053;-74
2021/06/27 11:53:28;;;;;;;3.55;3.25;;;30.90;48.00;;;;;;6201465;28;20134;-75
2021/06/27 11:56:50;;;;;;;4.47;2.50;;;31.00;48.30;;;;;;6200832;28;20129;-75
2021/06/27 11:59:55;;;;;;;4.00;3.70;;;30.80;47.20;;;;;;6200003;28;20066;-75
2021/06/27 12:03:06;;;;;;;2.65;2.45;;;30.90;49.50;;;;;;6200580;28;20054;-76
2021/06/27 12:06:11;;;;;;;2.88;2.67;;;31.20;47.40;;;;;;6195932;28;20192;-75
2021/06/27 12:09:13;;;;;;;2.53;2.10;;;31.10;48.20;;;;;;6176693;28;20073;-75
2021/06/27 12:12:15;;;;;;;2.72;2.22;;;31.10;47.60;;;;;;6176216;28;20207;-76
2021/06/27 12:15:48;;;;;;;3.00;2.80;;;31.10;48.10;;;;;;6176662;28;20053;-76
2021/06/27 12:18:50;;;;;;;3.10;2.75;;;31.40;49.10;;;;;;6110848;28;20072;-75
2021/06/27 12:21:59;;;;;;;6.22;2.35;;;31.50;47.60;;;;;;6200046;28;20050;-74
2021/06/27 12:25:02;;;;;;;2.88;2.67;;;31.70;46.20;;;;;;6177044;28;20138;-76
2021/06/27 12:28:07;;;;;;;2.42;2.22;;;31.70;47.20;;;;;;6176361;28;20074;-76
2021/06/27 12:31:13;;;;;;;3.03;2.72;;;31.90;48.40;;;;;;6176349;28;20113;-74
2021/06/27 12:34:14;;;;;;;2.75;2.55;;;32.20;46.50;;;;;;6176861;28;20046;-75
2021/06/27 12:37:18;;;;;;;2.67;2.42;;;32.00;46.90;;;;;;6177842;28;20053;-74
2021/06/27 12:40:20;;;;;;;3.45;2.97;;;32.00;46.40;;;;;;6176393;28;20121;-76
2021/06/27 12:43:28;;;;;;;2.08;1.92;;;31.80;47.30;;;;;;6176855;28;20070;-76
2021/06/27 12:46:33;;;;;;;4.13;2.85;;;31.80;46.10;;;;;;6175558;28;20528;-75
2021/06/27 12:49:36;;;;;;;2.92;2.60;;;31.60;46.40;;;;;;6173142;28;20094;-76
2021/06/27 12:52:40;;;;;;;2.58;2.38;;;31.50;46.80;;;;;;6175059;28;20050;-76
2021/06/27 12:55:54;;;;;;;2.15;1.98;;;31.50;46.20;;;;;;6175607;28;20631;-75
2021/06/27 12:58:57;;;;;;;2.72;2.00;;;31.80;45.90;;;;;;6174907;28;20181;-74
2021/06/27 13:02:01;;;;;;;2.97;2.60;;;31.90;46.40;;;;;;6174567;28;20136;-78
2021/06/27 13:05:05;;;;;;;2.50;2.30;;;32.00;45.40;;;;;;6174782;28;20059;-75
2021/06/27 13:08:17;;;;;;;2.50;2.30;;;32.00;45.30;;;;;;6174126;28;20055;-76
2021/06/27 13:11:19;;;;;;;2.33;2.13;;;32.00;46.10;;;;;;6174819;28;20107;-74
2021/06/27 13:14:27;;;;;;;3.60;2.40;;;31.70;45.20;;;;;;6179657;28;20185;-75
2021/06/27 13:17:28;;;;;;;3.05;2.20;;;31.40;46.10;;;;;;6199566;28;20054;-76
2021/06/27 13:20:40;;;;;;;3.28;2.45;;;31.40;46.60;;;;;;6198819;28;20046;-76
2021/06/27 13:23:43;;;;;;;2.33;2.13;;;31.60;46.50;;;;;;6199093;28;20054;-77
2021/06/27 13:26:45;;;;;;;2.53;2.00;;;31.60;46.60;;;;;;6199085;28;20141;-76
2021/06/27 13:30:05;;;;;;;2.50;2.30;;;31.70;46.60;;;;;;6198587;28;20133;-75
2021/06/27 13:33:08;;;;;;;2.72;2.17;;;31.80;45.00;;;;;;6199460;28;20133;-75
2021/06/27 13:36:12;;;;;;;2.92;2.00;;;31.50;45.90;;;;;;6198546;28;20470;-75
2021/06/27 13:39:15;;;;;;;1.73;1.63;;;31.20;45.30;;;;;;6198753;28;20200;-75
2021/06/27 13:42:17;;;;;;;3.15;1.80;;;30.80;46.50;;;;;;6198526;28;20048;-76
2021/06/27 13:45:21;;;;;;;2.60;2.20;;;30.70;46.50;;;;;;6199315;28;20078;-75
2021/06/27 13:48:23;;;;;;;3.22;2.92;;;30.50;46.80;;;;;;6198744;28;20053;-77
2021/06/27 13:51:25;;;;;;;1.85;1.60;;;30.50;47.40;;;;;;6198300;28;20760;-76
2021/06/27 13:54:28;;;;;;;2.08;1.88;;;30.50;47.60;;;;;;6199318;28;20518;-76
2021/06/27 13:57:30;;;;;;;4.47;2.83;;;30.40;48.40;;;;;;6198832;28;20057;-76
2021/06/27 14:00:31;;;;;;;2.45;2.25;;;30.30;47.60;;;;;;6230386;22;20097;-76
2021/06/27 14:03:33;;;;;;;1.90;1.80;;;30.30;49.50;;;;;;6221572;28;20522;-76
2021/06/27 14:06:35;;;;;;;2.40;1.98;;;30.30;48.60;;;;;;6214568;28;20546;-77
2021/06/27 14:09:38;;;;;;;1.90;1.80;;;30.40;49.20;;;;;;6197180;28;20423;-76
2021/06/27 14:12:41;;;;;;;2.30;2.10;;;30.40;48.60;;;;;;6220922;28;20119;-76
2021/06/27 14:15:43;;;;;;;2.50;2.30;;;30.40;49.10;;;;;;6237278;28;20563;-76
2021/06/27 14:18:45;;;;;;;1.70;1.60;;;30.30;49.00;;;;;;6238451;28;20137;-76
2021/06/27 14:21:49;;;;;;;2.78;2.13;;;30.10;47.80;;;;;;6221177;28;20085;-76
2021/06/27 14:24:53;;;;;;;1.83;1.52;;;30.10;48.00;;;;;;6196959;28;20050;-76
2021/06/27 14:27:54;;;;;;;7.00;2.85;;;30.10;48.70;;;;;;6196577;28;20070;-76
2021/06/27 14:30:58;;;;;;;5.63;3.20;;;30.20;48.80;;;;;;6206563;28;20115;-76
2021/06/27 14:34:00;;;;;;;2.72;2.00;;;30.30;48.50;;;;;;6221981;28;20049;-76
2021/06/27 14:37:02;;;;;;;2.22;2.03;;;30.40;48.50;;;;;;6222030;28;20060;-75
2021/06/27 14:40:08;;;;;;;2.70;2.47;;;30.40;48.70;;;;;;6221575;28;20141;-75
2021/06/27 14:43:10;;;;;;;3.15;1.80;;;30.50;49.20;;;;;;6221352;28;20641;-76
2021/06/27 14:46:12;;;;;;;4.85;3.08;;;30.70;50.30;;;;;;6221567;28;20261;-76
2021/06/27 14:49:14;;;;;;;4.85;2.40;;;30.80;49.50;;;;;;6218230;28;20529;-76
2021/06/27 14:52:17;;;;;;;2.60;2.40;;;30.90;49.00;;;;;;6221298;28;20127;-75
2021/06/27 14:55:21;;;;;;;2.67;2.42;;;30.70;49.10;;;;;;6221367;28;20057;-76
2021/06/27 14:58:22;;;;;;;1.83;1.73;;;30.50;47.70;;;;;;6221114;28;20069;-77
2021/06/27 15:01:24;;;;;;;2.30;2.10;;;30.20;48.40;;;;;;6221161;28;20141;-75
2021/06/27 15:04:27;;;;;;;3.03;2.47;;;30.10;49.20;;;;;;6219679;28;20046;-75
2021/06/27 15:07:29;;;;;;;3.08;2.47;;;30.00;49.50;;;;;;6220060;28;20069;-75
2021/06/27 15:10:32;;;;;;;2.33;2.13;;;30.10;50.00;;;;;;6220069;28;20041;-75
2021/06/27 15:13:34;;;;;;;4.32;1.90;;;30.20;48.10;;;;;;6223109;28;20045;-75
2021/06/27 15:16:36;;;;;;;2.15;2.00;;;30.30;49.40;;;;;;6225503;28;20085;-75
2021/06/27 15:19:38;;;;;;;2.50;2.30;;;30.40;48.50;;;;;;6225476;28;20618;-75
2021/06/27 15:22:39;;;;;;;2.63;2.22;;;30.50;49.00;;;;;;6225722;28;20038;-75
2021/06/27 15:25:45;;;;;;;2.65;2.13;;;30.60;49.00;;;;;;6226226;28;20082;-75
2021/06/27 15:28:47;;;;;;;11.60;2.95;;;30.70;49.70;;;;;;6225459;28;20450;-75
2021/06/27 15:31:49;;;;;;;2.28;2.08;;;30.80;50.00;;;;;;6225227;28;20527;-75
2021/06/27 15:34:51;;;;;;;2.30;2.10;;;30.70;49.60;;;;;;6225550;28;20176;-75
2021/06/27 15:37:52;;;;;;;2.17;1.98;;;30.70;49.00;;;;;;6225467;28;20084;-75
2021/06/27 15:40:56;;;;;;;2.45;2.10;;;30.50;49.70;;;;;;6225305;28;20526;-76
2021/06/27 15:43:58;;;;;;;2.15;1.95;;;30.40;49.90;;;;;;6225394;28;20581;-75
2021/06/27 15:47:00;;;;;;;5.45;3.25;;;30.40;49.10;;;;;;6225428;28;20127;-76
2021/06/27 15:50:02;;;;;;;4.38;2.47;;;30.20;49.30;;;;;;6224692;28;20088;-76